sensor_id;sensor_type;location;lat;lon;timestamp;P1;durP1;ratioP1;P2;durP2;ratioP2
80621;SDS011;69980;51.914;7.526;2024-03-23T00:55:18;5.95;;;1.50;;
80621;SDS011;69980;51.914;7.526;2024-03-23T00:57:43;8.60;;;2.35;;
80621;SDS011;69980;51.914;7.526;2024-03-23T01:00:09;4.57;;;1.50;;
80621;SDS011;69980;51.914;7.526;2024-03-23T01:02:34;4.97;;;1.90;;
80621;SDS011;69980;51.914;7.526;2024-03-23T01:05:00;5.90;;;1.83;;
80621;SDS011;69980;51.914;7.526;2024-03-23T01:07:25;6.15;;;1.60;;
80621;SDS011;69980;51.914;7.526;2024-03-23T01:09:50;5.53;;;1.58;;
80621;SDS011;69980;51.914;7.526;2024-03-23T01:12:15;6.28;;;2.08;;
80621;SDS011;69980;51.914;7.526;2024-03-23T01:14:41;4.90;;;1.60;;
80621;SDS011;69980;51.914;7.526;2024-03-23T01:17:06;6.50;;;2.00;;
80621;SDS011;69980;51.914;7.526;2024-03-23T01:19:31;5.70;;;1.63;;
80621;SDS011;69980;51.914;7.526;2024-03-23T01:21:56;7.55;;;2.10;;
80621;SDS011;69980;51.914;7.526;2024-03-23T01:24:22;8.15;;;2.10;;
80621;SDS011;69980;51.914;7.526;2024-03-23T01:26:47;7.38;;;1.73;;
80621;SDS011;69980;51.914;7.526;2024-03-23T01:29:13;5.00;;;1.70;;
80621;SDS011;69980;51.914;7.526;2024-03-23T01:31:38;5.05;;;1.85;;
80621;SDS011;69980;51.914;7.526;2024-03-23T01:34:03;4.65;;;1.58;;
80621;SDS011;69980;51.914;7.526;2024-03-23T01:36:28;6.40;;;1.80;;
80621;SDS011;69980;51.914;7.526;2024-03-23T01:38:54;7.00;;;1.70;;
80621;SDS011;69980;51.914;7.526;2024-03-23T01:41:19;4.25;;;1.58;;
80621;SDS011;69980;51.914;7.526;2024-03-23T01:43:44;5.82;;;1.83;;
80621;SDS011;69980;51.914;7.526;2024-03-23T01:46:09;5.07;;;1.70;;
80621;SDS011;69980;51.914;7.526;2024-03-23T01:48:35;5.93;;;1.95;;
80621;SDS011;69980;51.914;7.526;2024-03-23T01:51:00;7.05;;;1.90;;
80621;SDS011;69980;51.914;7.526;2024-03-23T01:53:26;4.03;;;1.90;;
80621;SDS011;69980;51.914;7.526;2024-03-23T01:55:51;7.70;;;2.28;;
80621;SDS011;69980;51.914;7.526;2024-03-23T01:58:16;7.82;;;2.05;;
80621;SDS011;69980;51.914;7.526;2024-03-23T02:00:41;6.15;;;2.40;;
80621;SDS011;69980;51.914;7.526;2024-03-23T02:03:26;8.77;;;2.58;;
80621;SDS011;69980;51.914;7.526;2024-03-23T02:05:52;9.07;;;2.17;;
80621;SDS011;69980;51.914;7.526;2024-03-23T02:08:18;9.40;;;3.10;;
80621;SDS011;69980;51.914;7.526;2024-03-23T02:10:45;8.25;;;2.80;;
80621;SDS011;69980;51.914;7.526;2024-03-23T02:13:10;7.30;;;3.08;;
80621;SDS011;69980;51.914;7.526;2024-03-23T02:15:36;8.98;;;3.30;;
80621;SDS011;69980;51.914;7.526;2024-03-23T02:18:01;9.88;;;3.60;;
80621;SDS011;69980;51.914;7.526;2024-03-23T02:20:26;8.90;;;3.63;;
80621;SDS011;69980;51.914;7.526;2024-03-23T02:22:53;9.63;;;3.38;;
80621;SDS011;69980;51.914;7.526;2024-03-23T02:25:18;12.85;;;3.50;;
80621;SDS011;69980;51.914;7.526;2024-03-23T02:27:43;10.13;;;2.92;;
80621;SDS011;69980;51.914;7.526;2024-03-23T02:30:09;9.88;;;2.92;;
80621;SDS011;69980;51.914;7.526;2024-03-23T02:32:34;12.73;;;2.65;;
80621;SDS011;69980;51.914;7.526;2024-03-23T02:34:59;7.50;;;2.53;;
80621;SDS011;69980;51.914;7.526;2024-03-23T02:37:25;10.45;;;2.90;;
80621;SDS011;69980;51.914;7.526;2024-03-23T02:39:50;9.30;;;2.20;;
80621;SDS011;69980;51.914;7.526;2024-03-23T02:42:15;11.27;;;2.78;;
80621;SDS011;69980;51.914;7.526;2024-03-23T02:44:40;10.50;;;2.40;;
80621;SDS011;69980;51.914;7.526;2024-03-23T02:47:06;9.25;;;2.85;;
80621;SDS011;69980;51.914;7.526;2024-03-23T02:49:31;8.55;;;2.80;;
80621;SDS011;69980;51.914;7.526;2024-03-23T02:51:56;7.40;;;2.38;;
80621;SDS011;69980;51.914;7.526;2024-03-23T02:54:22;10.40;;;3.20;;
80621;SDS011;69980;51.914;7.526;2024-03-23T02:56:47;8.07;;;2.65;;
80621;SDS011;69980;51.914;7.526;2024-03-23T02:59:12;10.55;;;2.80;;
80621;SDS011;69980;51.914;7.526;2024-03-23T03:01:37;9.45;;;2.78;;
80621;SDS011;69980;51.914;7.526;2024-03-23T03:04:03;7.75;;;2.60;;
80621;SDS011;69980;51.914;7.526;2024-03-23T03:06:29;8.13;;;2.90;;
80621;SDS011;69980;51.914;7.526;2024-03-23T03:08:55;11.55;;;3.20;;
80621;SDS011;69980;51.914;7.526;2024-03-23T03:11:20;9.93;;;3.20;;
80621;SDS011;69980;51.914;7.526;2024-03-23T03:13:45;10.85;;;3.50;;
80621;SDS011;69980;51.914;7.526;2024-03-23T03:16:11;6.65;;;2.97;;
80621;SDS011;69980;51.914;7.526;2024-03-23T03:18:36;9.27;;;2.85;;
80621;SDS011;69980;51.914;7.526;2024-03-23T03:21:02;8.57;;;3.03;;
80621;SDS011;69980;51.914;7.526;2024-03-23T03:23:28;9.93;;;3.30;;
80621;SDS011;69980;51.914;7.526;2024-03-23T03:25:53;10.70;;;3.70;;
80621;SDS011;69980;51.914;7.526;2024-03-23T03:28:19;10.73;;;3.97;;
80621;SDS011;69980;51.914;7.526;2024-03-23T03:30:45;11.13;;;3.85;;
80621;SDS011;69980;51.914;7.526;2024-03-23T03:33:10;12.43;;;3.85;;
80621;SDS011;69980;51.914;7.526;2024-03-23T03:35:35;10.45;;;3.55;;
80621;SDS011;69980;51.914;7.526;2024-03-23T03:38:00;11.40;;;3.92;;
80621;SDS011;69980;51.914;7.526;2024-03-23T03:40:26;11.63;;;3.95;;
80621;SDS011;69980;51.914;7.526;2024-03-23T03:42:51;7.43;;;3.30;;
80621;SDS011;69980;51.914;7.526;2024-03-23T03:45:16;13.43;;;3.75;;
80621;SDS011;69980;51.914;7.526;2024-03-23T03:47:41;9.60;;;3.67;;
80621;SDS011;69980;51.914;7.526;2024-03-23T03:50:07;10.95;;;3.80;;
80621;SDS011;69980;51.914;7.526;2024-03-23T03:52:32;9.60;;;3.50;;
80621;SDS011;69980;51.914;7.526;2024-03-23T03:55:03;8.98;;;3.72;;
80621;SDS011;69980;51.914;7.526;2024-03-23T03:57:29;14.18;;;3.78;;
80621;SDS011;69980;51.914;7.526;2024-03-23T03:59:54;13.35;;;4.63;;
80621;SDS011;69980;51.914;7.526;2024-03-23T04:02:19;12.55;;;4.13;;
80621;SDS011;69980;51.914;7.526;2024-03-23T04:04:45;13.95;;;4.10;;
80621;SDS011;69980;51.914;7.526;2024-03-23T04:07:10;13.32;;;4.38;;
80621;SDS011;69980;51.914;7.526;2024-03-23T04:09:35;12.45;;;3.78;;
80621;SDS011;69980;51.914;7.526;2024-03-23T04:12:01;10.50;;;4.10;;
80621;SDS011;69980;51.914;7.526;2024-03-23T04:14:26;14.32;;;4.35;;
80621;SDS011;69980;51.914;7.526;2024-03-23T04:16:51;9.30;;;4.00;;
80621;SDS011;69980;51.914;7.526;2024-03-23T04:19:19;11.23;;;4.07;;
80621;SDS011;69980;51.914;7.526;2024-03-23T04:21:44;12.07;;;4.20;;
80621;SDS011;69980;51.914;7.526;2024-03-23T04:24:10;13.15;;;4.78;;
80621;SDS011;69980;51.914;7.526;2024-03-23T04:26:42;15.23;;;4.35;;
80621;SDS011;69980;51.914;7.526;2024-03-23T04:29:09;12.68;;;4.10;;
80621;SDS011;69980;51.914;7.526;2024-03-23T04:31:35;14.27;;;4.50;;
80621;SDS011;69980;51.914;7.526;2024-03-23T04:34:00;15.02;;;4.60;;
80621;SDS011;69980;51.914;7.526;2024-03-23T04:36:26;15.73;;;4.30;;
80621;SDS011;69980;51.914;7.526;2024-03-23T04:38:51;14.65;;;4.38;;
80621;SDS011;69980;51.914;7.526;2024-03-23T04:41:17;13.65;;;4.40;;
80621;SDS011;69980;51.914;7.526;2024-03-23T04:43:42;15.38;;;4.40;;
80621;SDS011;69980;51.914;7.526;2024-03-23T04:46:07;15.07;;;4.63;;
80621;SDS011;69980;51.914;7.526;2024-03-23T04:48:32;14.93;;;5.40;;
80621;SDS011;69980;51.914;7.526;2024-03-23T04:50:58;14.48;;;5.28;;
80621;SDS011;69980;51.914;7.526;2024-03-23T04:53:23;13.70;;;5.22;;
80621;SDS011;69980;51.914;7.526;2024-03-23T04:55:49;16.85;;;5.13;;
80621;SDS011;69980;51.914;7.526;2024-03-23T04:58:14;19.13;;;5.65;;
80621;SDS011;69980;51.914;7.526;2024-03-23T05:00:39;16.65;;;5.90;;
80621;SDS011;69980;51.914;7.526;2024-03-23T05:03:05;14.73;;;5.63;;
80621;SDS011;69980;51.914;7.526;2024-03-23T05:05:30;16.38;;;5.82;;
80621;SDS011;69980;51.914;7.526;2024-03-23T05:07:55;17.40;;;6.13;;
80621;SDS011;69980;51.914;7.526;2024-03-23T05:10:21;17.17;;;5.82;;
80621;SDS011;69980;51.914;7.526;2024-03-23T05:12:46;20.02;;;6.72;;
80621;SDS011;69980;51.914;7.526;2024-03-23T05:15:11;15.48;;;6.32;;
80621;SDS011;69980;51.914;7.526;2024-03-23T05:17:37;14.70;;;6.03;;
80621;SDS011;69980;51.914;7.526;2024-03-23T05:20:03;19.30;;;6.90;;
80621;SDS011;69980;51.914;7.526;2024-03-23T05:22:29;19.95;;;6.07;;
80621;SDS011;69980;51.914;7.526;2024-03-23T05:24:54;18.05;;;6.97;;
80621;SDS011;69980;51.914;7.526;2024-03-23T05:27:19;20.80;;;8.20;;
80621;SDS011;69980;51.914;7.526;2024-03-23T05:29:45;20.58;;;7.53;;
80621;SDS011;69980;51.914;7.526;2024-03-23T05:32:10;22.27;;;7.82;;
80621;SDS011;69980;51.914;7.526;2024-03-23T05:34:35;20.88;;;8.52;;
80621;SDS011;69980;51.914;7.526;2024-03-23T05:37:01;19.77;;;8.50;;
80621;SDS011;69980;51.914;7.526;2024-03-23T05:39:26;22.40;;;8.45;;
80621;SDS011;69980;51.914;7.526;2024-03-23T05:41:51;18.25;;;8.88;;
80621;SDS011;69980;51.914;7.526;2024-03-23T05:44:17;21.92;;;9.00;;
80621;SDS011;69980;51.914;7.526;2024-03-23T05:46:42;22.80;;;9.07;;
80621;SDS011;69980;51.914;7.526;2024-03-23T05:49:08;18.67;;;8.25;;
80621;SDS011;69980;51.914;7.526;2024-03-23T05:51:33;20.80;;;8.43;;
80621;SDS011;69980;51.914;7.526;2024-03-23T05:53:58;18.55;;;8.13;;
80621;SDS011;69980;51.914;7.526;2024-03-23T05:56:24;20.23;;;7.55;;
80621;SDS011;69980;51.914;7.526;2024-03-23T05:58:49;18.13;;;8.55;;
80621;SDS011;69980;51.914;7.526;2024-03-23T06:01:14;18.27;;;8.50;;
80621;SDS011;69980;51.914;7.526;2024-03-23T06:03:39;18.40;;;9.27;;
80621;SDS011;69980;51.914;7.526;2024-03-23T06:06:05;19.13;;;9.05;;
80621;SDS011;69980;51.914;7.526;2024-03-23T06:08:30;21.05;;;9.38;;
80621;SDS011;69980;51.914;7.526;2024-03-23T06:10:55;18.27;;;8.30;;
80621;SDS011;69980;51.914;7.526;2024-03-23T06:13:21;18.52;;;8.63;;
80621;SDS011;69980;51.914;7.526;2024-03-23T06:15:46;18.63;;;8.52;;
80621;SDS011;69980;51.914;7.526;2024-03-23T06:18:11;21.73;;;8.73;;
80621;SDS011;69980;51.914;7.526;2024-03-23T06:20:37;19.02;;;8.85;;
80621;SDS011;69980;51.914;7.526;2024-03-23T06:23:02;23.30;;;8.50;;
80621;SDS011;69980;51.914;7.526;2024-03-23T06:25:27;18.98;;;8.90;;
80621;SDS011;69980;51.914;7.526;2024-03-23T06:27:52;19.73;;;8.25;;
80621;SDS011;69980;51.914;7.526;2024-03-23T06:30:18;17.13;;;7.65;;
80621;SDS011;69980;51.914;7.526;2024-03-23T06:32:43;18.95;;;7.85;;
80621;SDS011;69980;51.914;7.526;2024-03-23T06:35:08;20.58;;;7.78;;
80621;SDS011;69980;51.914;7.526;2024-03-23T06:37:35;17.10;;;8.05;;
80621;SDS011;69980;51.914;7.526;2024-03-23T06:40:00;16.60;;;7.35;;
80621;SDS011;69980;51.914;7.526;2024-03-23T06:42:26;15.75;;;7.60;;
80621;SDS011;69980;51.914;7.526;2024-03-23T06:44:51;17.08;;;7.30;;
80621;SDS011;69980;51.914;7.526;2024-03-23T06:47:16;21.15;;;7.05;;
80621;SDS011;69980;51.914;7.526;2024-03-23T06:49:42;15.57;;;7.47;;
80621;SDS011;69980;51.914;7.526;2024-03-23T06:52:07;13.38;;;7.05;;
80621;SDS011;69980;51.914;7.526;2024-03-23T06:54:32;18.17;;;7.57;;
80621;SDS011;69980;51.914;7.526;2024-03-23T06:56:57;18.75;;;8.13;;
80621;SDS011;69980;51.914;7.526;2024-03-23T06:59:23;17.05;;;7.57;;
80621;SDS011;69980;51.914;7.526;2024-03-23T07:01:48;17.55;;;7.82;;
80621;SDS011;69980;51.914;7.526;2024-03-23T07:04:13;15.05;;;7.70;;
80621;SDS011;69980;51.914;7.526;2024-03-23T07:06:42;19.15;;;7.80;;
80621;SDS011;69980;51.914;7.526;2024-03-23T07:09:08;18.00;;;7.47;;
80621;SDS011;69980;51.914;7.526;2024-03-23T07:11:33;15.35;;;6.88;;
80621;SDS011;69980;51.914;7.526;2024-03-23T07:13:59;17.58;;;7.13;;
80621;SDS011;69980;51.914;7.526;2024-03-23T07:16:24;15.85;;;7.22;;
80621;SDS011;69980;51.914;7.526;2024-03-23T07:18:51;13.57;;;6.60;;
80621;SDS011;69980;51.914;7.526;2024-03-23T07:21:17;15.88;;;6.90;;
80621;SDS011;69980;51.914;7.526;2024-03-23T07:23:42;17.02;;;6.55;;
80621;SDS011;69980;51.914;7.526;2024-03-23T07:26:08;16.45;;;6.72;;
80621;SDS011;69980;51.914;7.526;2024-03-23T07:28:33;13.73;;;6.50;;
80621;SDS011;69980;51.914;7.526;2024-03-23T07:33:28;14.77;;;5.97;;
80621;SDS011;69980;51.914;7.526;2024-03-23T07:35:53;19.10;;;6.40;;
80621;SDS011;69980;51.914;7.526;2024-03-23T07:38:19;14.07;;;5.55;;
80621;SDS011;69980;51.914;7.526;2024-03-23T07:40:44;16.83;;;6.15;;
80621;SDS011;69980;51.914;7.526;2024-03-23T07:43:09;10.98;;;5.00;;
80621;SDS011;69980;51.914;7.526;2024-03-23T07:45:35;14.32;;;5.13;;
80621;SDS011;69980;51.914;7.526;2024-03-23T07:48:00;14.80;;;4.65;;
80621;SDS011;69980;51.914;7.526;2024-03-23T07:50:25;16.55;;;5.50;;
80621;SDS011;69980;51.914;7.526;2024-03-23T07:52:50;11.68;;;5.22;;
80621;SDS011;69980;51.914;7.526;2024-03-23T07:55:16;13.02;;;4.22;;
80621;SDS011;69980;51.914;7.526;2024-03-23T07:57:41;15.52;;;5.10;;
80621;SDS011;69980;51.914;7.526;2024-03-23T08:00:06;14.32;;;5.05;;
80621;SDS011;69980;51.914;7.526;2024-03-23T08:02:32;13.13;;;4.03;;
80621;SDS011;69980;51.914;7.526;2024-03-23T08:04:57;15.48;;;4.13;;
80621;SDS011;69980;51.914;7.526;2024-03-23T08:07:23;13.10;;;3.95;;
80621;SDS011;69980;51.914;7.526;2024-03-23T08:09:48;11.02;;;3.40;;
80621;SDS011;69980;51.914;7.526;2024-03-23T08:12:13;9.32;;;3.50;;
80621;SDS011;69980;51.914;7.526;2024-03-23T08:14:38;13.07;;;3.97;;
80621;SDS011;69980;51.914;7.526;2024-03-23T08:17:04;11.60;;;3.47;;
80621;SDS011;69980;51.914;7.526;2024-03-23T08:19:29;10.70;;;3.70;;
80621;SDS011;69980;51.914;7.526;2024-03-23T08:21:54;15.45;;;3.53;;
80621;SDS011;69980;51.914;7.526;2024-03-23T08:24:22;10.75;;;3.70;;
80621;SDS011;69980;51.914;7.526;2024-03-23T08:26:48;12.15;;;3.30;;
80621;SDS011;69980;51.914;7.526;2024-03-23T08:29:13;11.43;;;3.42;;
80621;SDS011;69980;51.914;7.526;2024-03-23T08:31:38;11.35;;;3.13;;
80621;SDS011;69980;51.914;7.526;2024-03-23T08:34:04;10.75;;;3.50;;
80621;SDS011;69980;51.914;7.526;2024-03-23T08:36:29;9.02;;;2.80;;
80621;SDS011;69980;51.914;7.526;2024-03-23T08:38:54;12.40;;;3.42;;
80621;SDS011;69980;51.914;7.526;2024-03-23T08:41:20;10.98;;;3.65;;
80621;SDS011;69980;51.914;7.526;2024-03-23T08:43:45;8.63;;;2.78;;
80621;SDS011;69980;51.914;7.526;2024-03-23T08:46:12;8.57;;;2.55;;
80621;SDS011;69980;51.914;7.526;2024-03-23T08:48:39;11.77;;;2.92;;
80621;SDS011;69980;51.914;7.526;2024-03-23T08:51:06;8.70;;;2.47;;
80621;SDS011;69980;51.914;7.526;2024-03-23T08:53:32;8.63;;;2.60;;
80621;SDS011;69980;51.914;7.526;2024-03-23T08:55:58;11.55;;;2.78;;
80621;SDS011;69980;51.914;7.526;2024-03-23T08:58:24;10.40;;;2.90;;
80621;SDS011;69980;51.914;7.526;2024-03-23T09:00:51;9.27;;;3.40;;
80621;SDS011;69980;51.914;7.526;2024-03-23T09:03:16;12.60;;;3.95;;
80621;SDS011;69980;51.914;7.526;2024-03-23T09:05:42;10.65;;;4.00;;
80621;SDS011;69980;51.914;7.526;2024-03-23T09:08:07;9.07;;;3.20;;
80621;SDS011;69980;51.914;7.526;2024-03-23T09:10:37;10.20;;;3.78;;
80621;SDS011;69980;51.914;7.526;2024-03-23T09:13:03;10.50;;;4.20;;
80621;SDS011;69980;51.914;7.526;2024-03-23T09:15:29;10.27;;;3.72;;
80621;SDS011;69980;51.914;7.526;2024-03-23T09:17:54;10.07;;;3.78;;
80621;SDS011;69980;51.914;7.526;2024-03-23T09:20:19;15.82;;;3.70;;
80621;SDS011;69980;51.914;7.526;2024-03-23T09:22:44;12.40;;;3.25;;
80621;SDS011;69980;51.914;7.526;2024-03-23T09:25:10;7.18;;;2.28;;
80621;SDS011;69980;51.914;7.526;2024-03-23T09:27:35;7.22;;;2.85;;
80621;SDS011;69980;51.914;7.526;2024-03-23T09:30:00;9.05;;;3.15;;
80621;SDS011;69980;51.914;7.526;2024-03-23T09:32:26;6.80;;;2.80;;
80621;SDS011;69980;51.914;7.526;2024-03-23T09:34:51;6.63;;;2.50;;
80621;SDS011;69980;51.914;7.526;2024-03-23T09:37:16;10.73;;;3.25;;
80621;SDS011;69980;51.914;7.526;2024-03-23T09:39:41;8.75;;;2.75;;
80621;SDS011;69980;51.914;7.526;2024-03-23T09:42:07;6.00;;;3.05;;
80621;SDS011;69980;51.914;7.526;2024-03-23T09:44:32;6.88;;;2.90;;
80621;SDS011;69980;51.914;7.526;2024-03-23T09:46:57;7.28;;;2.85;;
80621;SDS011;69980;51.914;7.526;2024-03-23T09:49:23;12.15;;;3.40;;
80621;SDS011;69980;51.914;7.526;2024-03-23T09:51:48;8.20;;;2.88;;
80621;SDS011;69980;51.914;7.526;2024-03-23T09:54:13;6.57;;;2.63;;
80621;SDS011;69980;51.914;7.526;2024-03-23T09:56:39;9.38;;;2.85;;
80621;SDS011;69980;51.914;7.526;2024-03-23T09:59:04;9.73;;;2.85;;
80621;SDS011;69980;51.914;7.526;2024-03-23T10:01:30;8.88;;;2.90;;
80621;SDS011;69980;51.914;7.526;2024-03-23T10:03:56;8.52;;;2.97;;
80621;SDS011;69980;51.914;7.526;2024-03-23T10:06:21;6.25;;;3.17;;
80621;SDS011;69980;51.914;7.526;2024-03-23T10:08:47;9.80;;;3.72;;
80621;SDS011;69980;51.914;7.526;2024-03-23T10:11:13;8.82;;;3.40;;
80621;SDS011;69980;51.914;7.526;2024-03-23T10:13:40;8.10;;;3.38;;
80621;SDS011;69980;51.914;7.526;2024-03-23T10:16:09;10.18;;;3.67;;
80621;SDS011;69980;51.914;7.526;2024-03-23T10:18:38;10.23;;;3.40;;
80621;SDS011;69980;51.914;7.526;2024-03-23T10:21:08;8.73;;;3.63;;
80621;SDS011;69980;51.914;7.526;2024-03-23T10:23:34;8.68;;;3.40;;
80621;SDS011;69980;51.914;7.526;2024-03-23T10:26:13;11.40;;;3.45;;
80621;SDS011;69980;51.914;7.526;2024-03-23T10:28:58;8.20;;;2.47;;
80621;SDS011;69980;51.914;7.526;2024-03-23T10:31:24;7.43;;;3.47;;
80621;SDS011;69980;51.914;7.526;2024-03-23T10:33:49;5.70;;;2.70;;
80621;SDS011;69980;51.914;7.526;2024-03-23T10:36:15;9.18;;;2.50;;
80621;SDS011;69980;51.914;7.526;2024-03-23T10:38:40;7.15;;;2.25;;
80621;SDS011;69980;51.914;7.526;2024-03-23T10:41:10;5.22;;;1.70;;
80621;SDS011;69980;51.914;7.526;2024-03-23T10:43:36;6.32;;;2.00;;
80621;SDS011;69980;51.914;7.526;2024-03-23T10:46:01;8.00;;;1.98;;
80621;SDS011;69980;51.914;7.526;2024-03-23T10:48:27;8.30;;;2.20;;
80621;SDS011;69980;51.914;7.526;2024-03-23T10:50:52;5.82;;;2.17;;
80621;SDS011;69980;51.914;7.526;2024-03-23T10:53:18;8.15;;;2.00;;
80621;SDS011;69980;51.914;7.526;2024-03-23T10:55:44;6.05;;;1.88;;
80621;SDS011;69980;51.914;7.526;2024-03-23T10:58:09;8.18;;;2.00;;
80621;SDS011;69980;51.914;7.526;2024-03-23T11:00:35;6.75;;;1.70;;
80621;SDS011;69980;51.914;7.526;2024-03-23T11:03:29;9.98;;;1.92;;
80621;SDS011;69980;51.914;7.526;2024-03-23T11:06:07;9.17;;;2.07;;
80621;SDS011;69980;51.914;7.526;2024-03-23T11:08:33;5.82;;;2.00;;
80621;SDS011;69980;51.914;7.526;2024-03-23T11:11:16;6.13;;;1.80;;
80621;SDS011;69980;51.914;7.526;2024-03-23T11:13:47;4.80;;;1.48;;
80621;SDS011;69980;51.914;7.526;2024-03-23T11:16:14;3.38;;;1.10;;
80621;SDS011;69980;51.914;7.526;2024-03-23T11:18:39;3.05;;;0.50;;
80621;SDS011;69980;51.914;7.526;2024-03-23T11:21:06;2.85;;;0.70;;
80621;SDS011;69980;51.914;7.526;2024-03-23T11:23:31;4.40;;;0.90;;
80621;SDS011;69980;51.914;7.526;2024-03-23T11:25:57;3.55;;;1.02;;
80621;SDS011;69980;51.914;7.526;2024-03-23T11:28:22;4.60;;;1.65;;
80621;SDS011;69980;51.914;7.526;2024-03-23T11:30:47;3.92;;;1.48;;
80621;SDS011;69980;51.914;7.526;2024-03-23T11:33:13;4.47;;;1.60;;
80621;SDS011;69980;51.914;7.526;2024-03-23T11:35:38;6.03;;;1.35;;
80621;SDS011;69980;51.914;7.526;2024-03-23T11:38:11;3.08;;;1.23;;
80621;SDS011;69980;51.914;7.526;2024-03-23T11:40:37;5.00;;;1.60;;
80621;SDS011;69980;51.914;7.526;2024-03-23T11:43:07;6.78;;;1.65;;
80621;SDS011;69980;51.914;7.526;2024-03-23T11:45:33;5.40;;;1.42;;
80621;SDS011;69980;51.914;7.526;2024-03-23T11:50:32;4.97;;;1.45;;
80621;SDS011;69980;51.914;7.526;2024-03-23T11:53:17;5.60;;;1.70;;
80621;SDS011;69980;51.914;7.526;2024-03-23T11:58:12;7.80;;;1.45;;
80621;SDS011;69980;51.914;7.526;2024-03-23T12:00:38;4.03;;;1.30;;
80621;SDS011;69980;51.914;7.526;2024-03-23T12:03:03;3.13;;;1.30;;
80621;SDS011;69980;51.914;7.526;2024-03-23T12:05:29;15.20;;;2.30;;
80621;SDS011;69980;51.914;7.526;2024-03-23T12:07:55;5.68;;;1.20;;
80621;SDS011;69980;51.914;7.526;2024-03-23T12:10:39;4.88;;;1.60;;
80621;SDS011;69980;51.914;7.526;2024-03-23T12:13:05;4.40;;;1.55;;
80621;SDS011;69980;51.914;7.526;2024-03-23T12:15:30;6.25;;;1.50;;
80621;SDS011;69980;51.914;7.526;2024-03-23T12:18:08;5.88;;;1.30;;
80621;SDS011;69980;51.914;7.526;2024-03-23T12:20:34;3.35;;;1.35;;
80621;SDS011;69980;51.914;7.526;2024-03-23T12:23:06;5.35;;;1.70;;
80621;SDS011;69980;51.914;7.526;2024-03-23T12:25:40;6.05;;;1.63;;
80621;SDS011;69980;51.914;7.526;2024-03-23T12:28:05;5.72;;;1.67;;
80621;SDS011;69980;51.914;7.526;2024-03-23T12:30:32;7.15;;;1.20;;
80621;SDS011;69980;51.914;7.526;2024-03-23T12:33:01;3.10;;;0.75;;
80621;SDS011;69980;51.914;7.526;2024-03-23T12:35:27;4.28;;;1.00;;
80621;SDS011;69980;51.914;7.526;2024-03-23T12:37:52;5.40;;;1.10;;
80621;SDS011;69980;51.914;7.526;2024-03-23T12:40:17;5.18;;;1.30;;
80621;SDS011;69980;51.914;7.526;2024-03-23T12:42:43;5.53;;;1.30;;
80621;SDS011;69980;51.914;7.526;2024-03-23T12:45:08;6.32;;;1.40;;
80621;SDS011;69980;51.914;7.526;2024-03-23T12:47:34;4.15;;;1.30;;
80621;SDS011;69980;51.914;7.526;2024-03-23T12:49:59;4.18;;;1.48;;
80621;SDS011;69980;51.914;7.526;2024-03-23T12:52:24;5.10;;;1.42;;
80621;SDS011;69980;51.914;7.526;2024-03-23T12:54:49;4.00;;;1.10;;
80621;SDS011;69980;51.914;7.526;2024-03-23T12:57:15;6.03;;;1.52;;
80621;SDS011;69980;51.914;7.526;2024-03-23T12:59:40;5.88;;;1.65;;
80621;SDS011;69980;51.914;7.526;2024-03-23T13:02:05;6.18;;;1.70;;
80621;SDS011;69980;51.914;7.526;2024-03-23T13:04:31;5.80;;;1.50;;
80621;SDS011;69980;51.914;7.526;2024-03-23T13:06:56;6.90;;;1.58;;
80621;SDS011;69980;51.914;7.526;2024-03-23T13:09:21;4.68;;;1.70;;
80621;SDS011;69980;51.914;7.526;2024-03-23T13:11:46;5.60;;;1.50;;
80621;SDS011;69980;51.914;7.526;2024-03-23T13:14:12;5.32;;;1.40;;
80621;SDS011;69980;51.914;7.526;2024-03-23T13:16:37;6.70;;;1.63;;
80621;SDS011;69980;51.914;7.526;2024-03-23T13:19:02;6.07;;;1.60;;
80621;SDS011;69980;51.914;7.526;2024-03-23T13:21:28;6.35;;;1.33;;
80621;SDS011;69980;51.914;7.526;2024-03-23T13:23:53;5.32;;;1.60;;
80621;SDS011;69980;51.914;7.526;2024-03-23T13:26:18;5.45;;;1.40;;
80621;SDS011;69980;51.914;7.526;2024-03-23T13:28:43;4.75;;;1.20;;
80621;SDS011;69980;51.914;7.526;2024-03-23T13:31:09;5.85;;;1.23;;
80621;SDS011;69980;51.914;7.526;2024-03-23T13:33:34;5.43;;;1.40;;
80621;SDS011;69980;51.914;7.526;2024-03-23T13:35:59;6.00;;;1.30;;
80621;SDS011;69980;51.914;7.526;2024-03-23T13:38:25;4.95;;;1.30;;
80621;SDS011;69980;51.914;7.526;2024-03-23T13:40:57;5.45;;;1.40;;
80621;SDS011;69980;51.914;7.526;2024-03-23T13:43:24;5.15;;;1.50;;
80621;SDS011;69980;51.914;7.526;2024-03-23T13:45:51;6.35;;;1.80;;
80621;SDS011;69980;51.914;7.526;2024-03-23T13:48:21;3.63;;;1.30;;
80621;SDS011;69980;51.914;7.526;2024-03-23T13:50:56;5.75;;;1.75;;
80621;SDS011;69980;51.914;7.526;2024-03-23T13:53:22;4.78;;;1.50;;
80621;SDS011;69980;51.914;7.526;2024-03-23T13:55:47;5.32;;;1.58;;
80621;SDS011;69980;51.914;7.526;2024-03-23T13:58:12;6.15;;;1.50;;
80621;SDS011;69980;51.914;7.526;2024-03-23T14:00:38;4.63;;;1.00;;
80621;SDS011;69980;51.914;7.526;2024-03-23T14:03:03;5.20;;;1.23;;
80621;SDS011;69980;51.914;7.526;2024-03-23T14:05:28;4.10;;;0.93;;
80621;SDS011;69980;51.914;7.526;2024-03-23T14:07:53;5.53;;;1.10;;
80621;SDS011;69980;51.914;7.526;2024-03-23T14:10:19;4.95;;;1.13;;
80621;SDS011;69980;51.914;7.526;2024-03-23T14:12:44;3.55;;;0.88;;
80621;SDS011;69980;51.914;7.526;2024-03-23T14:15:09;4.70;;;1.20;;
80621;SDS011;69980;51.914;7.526;2024-03-23T14:17:35;3.72;;;1.02;;
80621;SDS011;69980;51.914;7.526;2024-03-23T14:20:00;6.28;;;1.08;;
80621;SDS011;69980;51.914;7.526;2024-03-23T14:22:25;4.43;;;0.93;;
80621;SDS011;69980;51.914;7.526;2024-03-23T14:24:50;3.72;;;1.10;;
80621;SDS011;69980;51.914;7.526;2024-03-23T14:27:16;4.80;;;1.00;;
80621;SDS011;69980;51.914;7.526;2024-03-23T14:29:41;4.95;;;1.10;;
80621;SDS011;69980;51.914;7.526;2024-03-23T14:32:06;4.53;;;1.33;;
80621;SDS011;69980;51.914;7.526;2024-03-23T14:34:32;4.78;;;1.10;;
80621;SDS011;69980;51.914;7.526;2024-03-23T14:36:57;4.82;;;1.23;;
80621;SDS011;69980;51.914;7.526;2024-03-23T14:39:22;5.40;;;1.10;;
80621;SDS011;69980;51.914;7.526;2024-03-23T14:41:49;4.75;;;1.10;;
80621;SDS011;69980;51.914;7.526;2024-03-23T14:44:15;6.00;;;1.40;;
80621;SDS011;69980;51.914;7.526;2024-03-23T14:46:40;6.43;;;1.20;;
80621;SDS011;69980;51.914;7.526;2024-03-23T14:49:06;5.40;;;1.33;;
80621;SDS011;69980;51.914;7.526;2024-03-23T14:51:31;5.18;;;1.40;;
80621;SDS011;69980;51.914;7.526;2024-03-23T14:53:56;6.25;;;1.40;;
80621;SDS011;69980;51.914;7.526;2024-03-23T14:56:21;4.75;;;1.08;;
80621;SDS011;69980;51.914;7.526;2024-03-23T14:58:51;5.18;;;1.10;;
80621;SDS011;69980;51.914;7.526;2024-03-23T15:01:17;5.07;;;1.40;;
80621;SDS011;69980;51.914;7.526;2024-03-23T15:03:42;4.45;;;0.90;;
80621;SDS011;69980;51.914;7.526;2024-03-23T15:06:08;4.95;;;0.90;;
80621;SDS011;69980;51.914;7.526;2024-03-23T15:08:33;3.88;;;1.10;;
80621;SDS011;69980;51.914;7.526;2024-03-23T15:10:59;4.03;;;0.90;;
80621;SDS011;69980;51.914;7.526;2024-03-23T15:13:25;4.25;;;0.90;;
80621;SDS011;69980;51.914;7.526;2024-03-23T15:15:50;3.15;;;0.88;;
80621;SDS011;69980;51.914;7.526;2024-03-23T15:18:15;4.03;;;1.20;;
80621;SDS011;69980;51.914;7.526;2024-03-23T15:20:41;4.78;;;1.23;;
80621;SDS011;69980;51.914;7.526;2024-03-23T15:23:06;4.97;;;0.80;;
80621;SDS011;69980;51.914;7.526;2024-03-23T15:25:32;4.65;;;1.05;;
80621;SDS011;69980;51.914;7.526;2024-03-23T15:27:57;3.63;;;0.80;;
80621;SDS011;69980;51.914;7.526;2024-03-23T15:30:23;5.00;;;0.90;;
80621;SDS011;69980;51.914;7.526;2024-03-23T15:32:48;5.03;;;1.02;;
80621;SDS011;69980;51.914;7.526;2024-03-23T15:35:14;4.63;;;1.00;;
80621;SDS011;69980;51.914;7.526;2024-03-23T15:37:39;3.97;;;1.00;;